createdAt,value
2022-08-22T00:01:39.656Z,48.21
2022-08-22T00:03:08.327Z,45.38
2022-08-22T00:04:57.115Z,49.90
2022-08-22T00:08:07.891Z,49.81
2022-08-22T00:11:15.379Z,50.15
2022-08-22T00:14:19.938Z,50.32
2022-08-22T00:17:36.800Z,49.76
2022-08-22T00:21:01.364Z,49.03
2022-08-22T00:24:18.113Z,48.52
2022-08-22T00:27:22.563Z,50.72
2022-08-22T00:30:25.173Z,50.69
2022-08-22T00:33:45.004Z,50.63
2022-08-22T00:37:08.137Z,51.54
2022-08-22T00:40:19.346Z,52.30
2022-08-22T00:43:33.055Z,51.85
2022-08-22T00:46:46.679Z,51.45
2022-08-22T00:49:48.134Z,51.11
2022-08-22T00:52:58.510Z,51.83
2022-08-22T00:56:03.014Z,50.68
2022-08-22T00:59:24.177Z,50.31
2022-08-22T01:02:40.767Z,51.64
2022-08-22T01:05:48.390Z,49.88
2022-08-22T01:08:52.906Z,50.42
2022-08-22T01:11:54.539Z,50.83
2022-08-22T01:14:59.877Z,52.54
2022-08-22T01:18:20.338Z,53.62
2022-08-22T01:21:42.073Z,52.78
2022-08-22T01:25:18.426Z,53.67
2022-08-22T01:28:24.106Z,52.29
2022-08-22T01:31:42.491Z,52.81
2022-08-22T01:34:53.663Z,53.68
2022-08-22T01:38:13.868Z,53.05
2022-08-22T01:41:17.081Z,53.81
2022-08-22T01:44:37.349Z,53.46
2022-08-22T01:47:54.342Z,50.61
2022-08-22T01:51:14.646Z,50.03
2022-08-22T01:54:22.118Z,50.22
2022-08-22T01:57:24.667Z,49.78
2022-08-22T02:00:35.528Z,49.58
2022-08-22T02:03:43.068Z,50.21
2022-08-22T02:06:58.453Z,49.76
2022-08-22T02:10:18.235Z,49.34
2022-08-22T02:13:19.806Z,48.73
2022-08-22T02:16:21.245Z,49.90
2022-08-22T02:19:38.629Z,49.06
2022-08-22T02:22:53.126Z,50.03
2022-08-22T02:25:57.847Z,49.57
2022-08-22T02:29:07.764Z,50.22
2022-08-22T02:32:19.013Z,50.17
2022-08-22T02:35:20.489Z,50.23
2022-08-22T02:38:36.329Z,49.69
2022-08-22T02:41:47.264Z,51.96
2022-08-22T02:44:48.727Z,50.22
2022-08-22T02:47:59.649Z,49.33
2022-08-22T02:51:05.812Z,48.96
2022-08-22T02:54:24.668Z,48.49
2022-08-22T02:57:39.554Z,52.17
2022-08-22T03:00:44.199Z,52.65
2022-08-22T03:03:46.526Z,52.51
2022-08-22T03:07:03.187Z,51.77
2022-08-22T03:10:16.571Z,50.39
2022-08-22T03:13:36.140Z,50.35
2022-08-22T03:16:40.535Z,50.23
2022-08-22T03:19:51.297Z,50.70
2022-08-22T03:23:00.081Z,52.95
2022-08-22T03:26:13.657Z,53.15
2022-08-22T03:29:24.254Z,52.63
2022-08-22T03:32:45.654Z,51.29
2022-08-22T03:35:47.208Z,53.34
2022-08-22T03:38:48.686Z,51.82
2022-08-22T03:42:08.737Z,51.49
2022-08-22T03:45:29.002Z,51.10
2022-08-22T03:48:49.401Z,53.99
2022-08-22T03:51:53.939Z,54.51
2022-08-22T03:55:14.135Z,53.45
2022-08-22T03:58:30.841Z,53.73
2022-08-22T04:02:01.859Z,54.79
2022-08-22T04:05:03.309Z,52.97
2022-08-22T04:08:26.303Z,52.14
2022-08-22T04:11:41.292Z,54.55
2022-08-22T04:14:44.072Z,55.49
2022-08-22T04:18:04.330Z,54.39
2022-08-22T04:21:06.202Z,55.12
2022-08-22T04:24:15.748Z,53.86
2022-08-22T04:27:36.179Z,53.11
2022-08-22T04:30:40.815Z,54.67
2022-08-22T04:34:02.896Z,53.81
2022-08-22T04:37:10.039Z,55.40
2022-08-22T04:40:24.427Z,55.76
2022-08-22T04:43:44.781Z,56.32
2022-08-22T04:46:52.629Z,56.32
2022-08-22T04:50:02.018Z,56.51
2022-08-22T04:53:06.570Z,56.20
2022-08-22T04:56:08.045Z,56.42
2022-08-22T04:59:16.418Z,55.25
2022-08-22T05:02:22.727Z,54.30
2022-08-22T05:05:26.020Z,55.00
2022-08-22T05:08:31.978Z,56.12
2022-08-22T05:11:35.591Z,56.09
2022-08-22T05:14:57.364Z,55.92
2022-08-22T05:18:02.764Z,54.03
2022-08-22T05:21:07.499Z,53.37
2022-08-22T05:24:22.057Z,53.40
2022-08-22T05:27:44.034Z,53.44
2022-08-22T05:30:47.699Z,55.31
2022-08-22T05:33:51.736Z,54.44
2022-08-22T05:37:00.129Z,53.55
2022-08-22T05:40:01.860Z,55.33
2022-08-22T05:43:04.548Z,56.34
2022-08-22T05:46:07.767Z,55.97
2022-08-22T05:49:20.777Z,56.08
2022-08-22T05:52:48.655Z,55.59
2022-08-22T05:55:50.368Z,54.94
2022-08-22T05:58:55.343Z,55.36
2022-08-22T06:02:12.568Z,55.53
2022-08-22T06:05:20.043Z,54.63
2022-08-22T06:08:31.193Z,54.24
2022-08-22T06:11:38.805Z,53.28
2022-08-22T06:14:46.780Z,53.93
2022-08-22T06:17:55.430Z,52.24
2022-08-22T06:21:01.932Z,51.88
2022-08-22T06:24:05.639Z,50.43
2022-08-22T06:27:12.401Z,49.66
2022-08-22T06:30:15.443Z,49.78
2022-08-22T06:33:21.420Z,49.07
2022-08-22T06:36:33.629Z,48.63
2022-08-22T06:39:36.810Z,48.28
2022-08-22T06:42:40.838Z,49.09
2022-08-22T06:45:42.560Z,48.72
2022-08-22T06:48:44.827Z,48.57
2022-08-22T06:51:47.415Z,47.74
2022-08-22T06:54:52.749Z,47.94
2022-08-22T06:57:56.500Z,47.70
2022-08-22T07:01:11.768Z,47.17
2022-08-22T07:04:14.363Z,47.25
2022-08-22T07:07:17.975Z,45.45
2022-08-22T07:10:21.833Z,45.96
2022-08-22T07:13:25.196Z,45.24
2022-08-22T07:16:34.360Z,45.97
2022-08-22T07:19:37.860Z,45.65
2022-08-22T07:22:39.445Z,45.65
2022-08-22T07:26:04.331Z,44.96
2022-08-22T07:29:17.024Z,45.40
2022-08-22T07:32:20.390Z,44.87
2022-08-22T07:35:26.659Z,44.90
2022-08-22T07:38:42.926Z,44.77
2022-08-22T07:42:03.453Z,44.26
2022-08-22T07:45:25.179Z,44.04
2022-08-22T07:48:38.300Z,43.61
2022-08-22T07:51:52.971Z,44.80
2022-08-22T07:55:17.817Z,45.03
2022-08-22T07:58:21.762Z,44.48
2022-08-22T08:01:23.879Z,43.38
2022-08-22T08:04:30.757Z,43.45
2022-08-22T08:07:32.613Z,42.70
2022-08-22T08:10:36.438Z,42.22
2022-08-22T08:13:41.542Z,43.32
2022-08-22T08:16:45.735Z,41.90
2022-08-22T08:19:48.019Z,41.28
2022-08-22T08:22:50.034Z,40.99
2022-08-22T08:26:00.758Z,41.47
2022-08-22T08:29:03.669Z,40.34
2022-08-22T08:32:07.712Z,40.68
2022-08-22T08:35:18.525Z,41.01
2022-08-22T08:38:26.466Z,38.65
2022-08-22T08:41:39.655Z,38.76
2022-08-22T08:44:47.126Z,38.88
2022-08-22T08:47:58.639Z,38.24
2022-08-22T08:51:09.335Z,36.62
2022-08-22T08:54:21.713Z,36.02
2022-08-22T08:57:43.248Z,35.10
2022-08-22T09:00:51.087Z,35.30
2022-08-22T09:03:52.651Z,35.36
2022-08-22T09:07:01.360Z,35.90
2022-08-22T09:10:16.487Z,34.76
2022-08-22T09:13:40.882Z,35.56
2022-08-22T09:16:47.301Z,35.92
2022-08-22T09:20:17.719Z,36.00
2022-08-22T09:23:54.107Z,35.43
2022-08-22T09:27:03.700Z,34.98
2022-08-22T09:30:12.298Z,34.87
2022-08-22T09:33:17.105Z,36.55
2022-08-22T09:36:23.575Z,34.75
2022-08-22T09:39:31.394Z,34.90
2022-08-22T09:42:44.862Z,35.17
2022-08-22T09:45:52.294Z,35.06
2022-08-22T09:48:56.968Z,35.70
2022-08-22T09:52:15.633Z,34.46
2022-08-22T09:55:47.820Z,33.63
2022-08-22T09:58:57.877Z,34.02
2022-08-22T10:02:05.989Z,34.38
2022-08-22T10:05:07.635Z,32.18
2022-08-22T10:08:13.274Z,32.07
2022-08-22T10:11:30.577Z,31.46
2022-08-22T10:14:40.598Z,31.26
2022-08-22T10:18:01.014Z,31.47
2022-08-22T10:21:11.524Z,31.36
2022-08-22T10:24:25.181Z,30.91
2022-08-22T10:27:39.435Z,30.24
2022-08-22T10:31:00.411Z,29.42
2022-08-22T10:34:01.942Z,29.76
2022-08-22T10:37:06.622Z,28.91
2022-08-22T10:40:08.273Z,30.44
2022-08-22T10:43:13.164Z,29.78
2022-08-22T10:46:16.767Z,28.95
2022-08-22T10:49:22.464Z,28.15
2022-08-22T10:52:41.361Z,28.61
2022-08-22T10:55:44.992Z,27.10
2022-08-22T10:58:54.905Z,28.00
2022-08-22T11:02:05.476Z,27.18
2022-08-22T11:05:09.732Z,26.08
2022-08-22T11:08:17.312Z,26.88
2022-08-22T11:11:18.978Z,27.65
2022-08-22T11:14:26.957Z,26.72
2022-08-22T11:17:53.744Z,25.88
2022-08-22T11:20:55.446Z,26.63
2022-08-22T11:24:03.139Z,25.27
2022-08-22T11:27:37.890Z,24.83
2022-08-22T11:30:50.432Z,25.08
2022-08-22T11:34:03.600Z,24.78
2022-08-22T11:37:43.570Z,25.23
2022-08-22T11:40:50.251Z,24.09
2022-08-22T11:43:57.463Z,24.81
2022-08-22T11:47:01.370Z,23.14
2022-08-22T11:50:22.189Z,23.95
2022-08-22T11:53:32.742Z,24.44
2022-08-22T11:56:37.202Z,23.72
2022-08-22T11:59:43.441Z,22.87
2022-08-22T12:02:50.538Z,20.92
2022-08-22T12:05:55.910Z,19.37
2022-08-22T12:09:00.556Z,21.27
2022-08-22T12:12:05.193Z,21.76
2022-08-22T12:15:22.043Z,23.57
2022-08-22T12:18:29.684Z,23.78
2022-08-22T12:21:31.273Z,25.05
2022-08-22T12:24:36.045Z,25.05
2022-08-22T12:27:37.765Z,26.08
2022-08-22T12:30:56.166Z,23.93
2022-08-22T12:34:07.419Z,23.92
2022-08-22T12:37:16.968Z,24.62
2022-08-22T12:40:27.260Z,25.55
2022-08-22T12:43:42.447Z,25.90
2022-08-22T12:46:57.052Z,24.53
2022-08-22T12:50:12.363Z,25.46
2022-08-22T12:53:20.627Z,24.74
2022-08-22T12:56:36.951Z,25.51
2022-08-22T12:59:41.613Z,26.71
2022-08-22T13:02:44.975Z,25.92
2022-08-22T13:05:56.710Z,25.11
2022-08-22T13:09:28.423Z,26.28
2022-08-22T13:12:52.524Z,25.98
2022-08-22T13:16:05.463Z,25.60
2022-08-22T13:19:13.452Z,26.16
2022-08-22T13:22:21.929Z,29.23
2022-08-22T13:25:26.383Z,27.02
2022-08-22T13:28:30.087Z,27.81
2022-08-22T13:31:33.626Z,26.63
2022-08-22T13:34:40.094Z,26.03
2022-08-22T13:37:45.876Z,25.64
2022-08-22T13:40:52.591Z,25.92
2022-08-22T13:43:59.301Z,25.74
2022-08-22T13:47:14.774Z,27.01
2022-08-22T13:50:25.310Z,26.20
2022-08-22T13:53:48.994Z,26.43
2022-08-22T13:57:08.010Z,26.69
2022-08-22T14:00:28.572Z,25.94
2022-08-22T14:03:40.013Z,26.41
2022-08-22T14:06:45.388Z,25.54
2022-08-22T14:09:54.215Z,25.73
2022-08-22T14:12:56.203Z,25.71
2022-08-22T14:16:02.229Z,27.46
2022-08-22T14:19:07.467Z,28.87
2022-08-22T14:22:14.509Z,26.76
2022-08-22T14:25:21.553Z,26.65
2022-08-22T14:28:27.651Z,27.38
2022-08-22T14:31:30.021Z,28.36
2022-08-22T14:34:35.106Z,27.01
2022-08-22T14:37:38.966Z,26.38
2022-08-22T14:40:42.258Z,26.55
2022-08-22T14:43:53.417Z,26.49
2022-08-22T14:47:32.373Z,26.43
2022-08-22T14:50:40.621Z,26.21
2022-08-22T14:53:43.883Z,25.70
2022-08-22T14:56:48.028Z,25.69
2022-08-22T14:59:51.943Z,25.51
2022-08-22T15:02:54.602Z,25.59
2022-08-22T15:05:58.227Z,25.01
2022-08-22T15:09:01.020Z,25.73
2022-08-22T15:12:39.075Z,25.17
2022-08-22T15:15:53.495Z,26.63
2022-08-22T15:18:57.695Z,26.13
2022-08-22T15:22:09.664Z,25.27
2022-08-22T15:25:19.882Z,25.95
2022-08-22T15:28:22.789Z,25.96
2022-08-22T15:31:27.554Z,25.37
2022-08-22T15:34:39.728Z,26.68
2022-08-22T15:37:59.388Z,26.72
2022-08-22T15:41:22.083Z,25.77
2022-08-22T15:44:50.011Z,25.46
2022-08-22T15:47:53.448Z,26.03
2022-08-22T15:51:04.585Z,25.00
2022-08-22T15:54:24.407Z,24.87
2022-08-22T15:57:29.565Z,25.84
2022-08-22T16:00:43.237Z,27.83
2022-08-22T16:03:58.432Z,25.60
2022-08-22T16:07:01.330Z,25.44
2022-08-22T16:10:06.369Z,24.85
2022-08-22T16:13:26.246Z,26.25
2022-08-22T16:16:43.063Z,25.26
2022-08-22T16:19:44.566Z,25.21
2022-08-22T16:22:58.409Z,24.86
2022-08-22T16:25:59.902Z,27.20
2022-08-22T16:29:21.355Z,25.00
2022-08-22T16:32:25.127Z,26.33
2022-08-22T16:35:45.483Z,24.86
2022-08-22T16:38:49.162Z,26.46
2022-08-22T16:41:51.922Z,26.67
2022-08-22T16:45:08.345Z,26.33
2022-08-22T16:48:15.999Z,25.92
2022-08-22T16:51:21.380Z,25.66
2022-08-22T16:54:44.134Z,26.09
2022-08-22T16:58:05.649Z,26.88
2022-08-22T17:01:11.069Z,27.21
2022-08-22T17:04:37.884Z,26.98
2022-08-22T17:07:52.759Z,26.06
2022-08-22T17:11:13.114Z,26.39
2022-08-22T17:14:27.299Z,25.50
2022-08-22T17:17:47.824Z,26.18
2022-08-22T17:21:00.596Z,26.71
2022-08-22T17:24:11.721Z,27.29
2022-08-22T17:27:35.003Z,27.34
2022-08-22T17:30:44.447Z,26.29
2022-08-22T17:33:58.159Z,27.31
2022-08-22T17:37:05.773Z,28.14
2022-08-22T17:40:10.458Z,27.25
2022-08-22T17:43:15.195Z,27.65
2022-08-22T17:46:19.921Z,28.19
2022-08-22T17:49:29.405Z,27.58
2022-08-22T17:52:30.856Z,28.69
2022-08-22T17:55:34.346Z,29.87
2022-08-22T17:58:43.743Z,30.14
2022-08-22T18:02:01.157Z,30.63
2022-08-22T18:05:08.892Z,32.12
2022-08-22T18:08:38.370Z,32.36
2022-08-22T18:11:46.200Z,33.07
2022-08-22T18:14:54.634Z,33.94
2022-08-22T18:18:02.808Z,34.04
2022-08-22T18:21:20.870Z,34.68
2022-08-22T18:24:32.613Z,34.81
2022-08-22T18:27:37.726Z,35.05
2022-08-22T18:30:53.770Z,34.41
2022-08-22T18:33:59.472Z,35.51
2022-08-22T18:37:21.033Z,35.64
2022-08-22T18:40:33.112Z,35.91
2022-08-22T18:43:37.177Z,36.63
2022-08-22T18:46:38.719Z,36.99
2022-08-22T18:49:43.285Z,37.13
2022-08-22T18:52:44.890Z,38.16
2022-08-22T18:55:58.217Z,37.73
2022-08-22T18:59:32.188Z,38.03
2022-08-22T19:03:03.652Z,38.98
2022-08-22T19:06:20.694Z,38.66
2022-08-22T19:09:47.185Z,38.34
2022-08-22T19:12:49.684Z,38.31
2022-08-22T19:16:06.015Z,37.65
2022-08-22T19:19:21.669Z,39.17
2022-08-22T19:22:23.129Z,38.98
2022-08-22T19:25:28.697Z,39.11
2022-08-22T19:28:35.459Z,39.58
2022-08-22T19:31:38.859Z,39.54
2022-08-22T19:34:41.690Z,39.20
2022-08-22T19:37:55.876Z,39.95
2022-08-22T19:40:58.279Z,40.09
2022-08-22T19:44:06.578Z,39.72
2022-08-22T19:47:17.371Z,39.96
2022-08-22T19:50:18.822Z,40.80
2022-08-22T19:53:27.485Z,40.66
2022-08-22T19:56:36.922Z,40.38
2022-08-22T19:59:50.901Z,40.39
2022-08-22T20:03:01.968Z,38.53
2022-08-22T20:06:42.624Z,40.43
2022-08-22T20:09:40.221Z,41.48
2022-08-22T20:13:03.832Z,40.31
2022-08-22T20:16:09.538Z,40.57
2022-08-22T20:19:11.847Z,41.91
2022-08-22T20:22:19.198Z,41.25
2022-08-22T20:25:42.085Z,41.20
2022-08-22T20:28:52.278Z,42.60
2022-08-22T20:31:58.159Z,42.15
2022-08-22T20:35:01.747Z,42.59
2022-08-22T20:38:07.163Z,42.49
2022-08-22T20:41:14.330Z,42.72
2022-08-22T20:44:21.730Z,43.28
2022-08-22T20:47:24.999Z,43.06
2022-08-22T20:50:28.799Z,43.60
2022-08-22T20:53:30.386Z,43.94
2022-08-22T20:56:36.934Z,43.99
2022-08-22T20:59:39.403Z,43.79
2022-08-22T21:02:44.216Z,43.76
2022-08-22T21:05:46.266Z,44.04
2022-08-22T21:09:11.288Z,44.37
2022-08-22T21:12:13.230Z,44.50
2022-08-22T21:15:28.908Z,43.27
2022-08-22T21:18:32.487Z,44.16
2022-08-22T21:21:34.619Z,43.10
2022-08-22T21:24:36.144Z,42.68
2022-08-22T21:27:37.641Z,42.50
2022-08-22T21:30:39.199Z,42.68
2022-08-22T21:33:45.194Z,43.62
2022-08-22T21:36:50.131Z,44.95
2022-08-22T21:39:58.309Z,44.07
2022-08-22T21:43:10.778Z,43.50
2022-08-22T21:46:12.248Z,43.48
2022-08-22T21:49:27.437Z,43.99
2022-08-22T21:52:30.249Z,43.91
2022-08-22T21:55:36.162Z,42.70
2022-08-22T21:58:38.826Z,43.57
2022-08-22T22:01:42.708Z,43.23
2022-08-22T22:04:47.335Z,45.63
2022-08-22T22:07:48.857Z,43.58
2022-08-22T22:10:50.795Z,44.54
2022-08-22T22:13:52.521Z,42.84
2022-08-22T22:16:54.021Z,42.08
2022-08-22T22:19:55.639Z,41.60
2022-08-22T22:22:57.183Z,41.99
2022-08-22T22:26:01.115Z,42.68
2022-08-22T22:29:03.055Z,41.80
2022-08-22T22:32:04.709Z,41.75
2022-08-22T22:35:06.525Z,41.40
2022-08-22T22:38:08.676Z,40.78
2022-08-22T22:41:10.196Z,41.83
2022-08-22T22:44:11.890Z,43.01
2022-08-22T22:47:13.440Z,42.47
2022-08-22T22:50:15.008Z,40.80
2022-08-22T22:53:19.912Z,41.75
2022-08-22T22:56:23.186Z,42.58
2022-08-22T22:59:25.398Z,41.58
2022-08-22T23:02:26.984Z,42.04
2022-08-22T23:05:32.510Z,42.46
2022-08-22T23:08:34.019Z,41.61
2022-08-22T23:11:35.678Z,40.84
2022-08-22T23:14:37.288Z,40.85
2022-08-22T23:17:39.131Z,41.79
2022-08-22T23:20:40.660Z,42.65
2022-08-22T23:23:42.304Z,43.30
2022-08-22T23:26:43.803Z,42.86
2022-08-22T23:29:45.334Z,43.55
2022-08-22T23:32:46.909Z,43.08
2022-08-22T23:35:48.364Z,44.78
2022-08-22T23:38:50.854Z,44.38
2022-08-22T23:41:52.878Z,44.85
2022-08-22T23:44:54.598Z,45.09
2022-08-22T23:47:56.204Z,45.44
2022-08-22T23:50:57.677Z,46.16
2022-08-22T23:53:59.686Z,46.51
2022-08-22T23:57:02.246Z,47.00
